This is the latest recevied weather packets stored in our database for station/object KF7SOJ. If no packets are shown the sender has not sent any weather packets the latest 1 day(s).
| Time | Temp. | Humidity | Pressure | Rain* | Wind** | Luminosity | Snow |
|---|---|---|---|---|---|---|---|
| 1778020706 | 9.44° C | 31% | 932.7 hPa | 0 mm | 5.81 m/s, 19° | 771 W/m² | - |
| 1778020403 | 8.33° C | 33% | 933 hPa | 0 mm | 4.47 m/s, 45° | 303 W/m² | - |
| 1778020099 | 9.44° C | 32% | 933 hPa | 0 mm | 6.26 m/s, 23° | 222 W/m² | - |
| 1778019795 | 9.44° C | 33% | 932.9 hPa | 0 mm | 8.05 m/s, 36° | 812 W/m² | - |
| 1778019492 | 9.44° C | 32% | 932.9 hPa | 0 mm | 8.05 m/s, 21° | 294 W/m² | - |
| 1778019189 | 9.44° C | 32% | 932.8 hPa | 0 mm | 5.36 m/s, 40° | 793 W/m² | - |
| 1778018886 | 9.44° C | 33% | 932.9 hPa | 0 mm | 8.05 m/s, 22° | 774 W/m² | - |
| 1778018583 | 10° C | 32% | 932.8 hPa | 0 mm | 10.73 m/s, 37° | 864 W/m² | - |
| 1778018281 | 10° C | 33% | 932.9 hPa | 0 mm | 3.58 m/s, 13° | 735 W/m² | - |
| 1778017978 | 10° C | 29% | 932.8 hPa | 0 mm | 7.6 m/s, 26° | 877 W/m² | - |
| 1778017676 | 10° C | 31% | 932.9 hPa | 0 mm | 6.26 m/s, 18° | 798 W/m² | - |
| 1778017373 | 10° C | 33% | 933 hPa | 0 mm | 8.05 m/s, 9° | 950 W/m² | - |
| 1778017070 | 10° C | 30% | 932.8 hPa | 0 mm | 4.47 m/s, 6° | 969 W/m² | - |
| 1778016768 | 10° C | 30% | 933 hPa | 0 mm | 8.94 m/s, 43° | 945 W/m² | - |
| 1778016463 | 9.44° C | 32% | 932.9 hPa | 0 mm | 7.15 m/s, 18° | 957 W/m² | - |
| 1778016161 | 10.56° C | 31% | 933 hPa | 0 mm | 7.15 m/s, 16° | 691 W/m² | - |
| 1778015858 | 10.56° C | 33% | 933 hPa | 0 mm | 10.28 m/s, 52° | 960 W/m² | - |
| 1778015555 | 10° C | 32% | 933 hPa | 0 mm | 7.15 m/s, 22° | 943 W/m² | - |
| 1778015251 | 9.44° C | 33% | 932.9 hPa | 0 mm | 7.6 m/s, 30° | 1049 W/m² | - |
| 1778014948 | 9.44° C | 33% | 932.8 hPa | 0 mm | 6.71 m/s, 27° | 435 W/m² | - |
| 1778014646 | 8.89° C | 35% | 933.1 hPa | 0 mm | 8.94 m/s, 22° | 546 W/m² | - |
| 1778014344 | 10° C | 33% | 932.8 hPa | 0 mm | 8.94 m/s, 12° | 290 W/m² | - |
| 1778014040 | 10° C | 32% | 933 hPa | 0 mm | 4.47 m/s, 11° | 1014 W/m² | - |
| 1778013738 | 10° C | 32% | 933.1 hPa | 0 mm | 3.58 m/s, 354° | 987 W/m² | - |
| 1778013435 | 8.89° C | 35% | 933.2 hPa | 0 mm | 8.49 m/s, 29° | 1002 W/m² | - |
* Rain latest hour (hover to see other rain measurements)
** Current wind speed in m/s (hover to see current wind gust speed)